KMCN/MCN METAR and TAF weather

Enter ICAO airport designator
Station Type Date Time Source
KMCN METAR 2020/01/23 21:08 UTC NOAA

KMCN 232108Z 09007KT 10SM BKN019 OVC110 12/04 A3012 RMK AO2 T01220039


Station Type Date Time Source
KMCN Decoded METAR 2020/01/23 21:08 UTC NOAA

MIDDLE GEORGIA REGIONAL AIRPORT , GA, United States (KMCN) 32-41N 83-39W 109M
Jan 23, 2020 - 04:08 PM EST / 2020.01.23 2108 UTC
Wind: from the E (090 degrees) at 8 MPH (7 KT):0
Visibility: 10 mile(s):0
Sky conditions: overcast
Temperature: 54.0 F (12.2 C)
Dew Point: 39.0 F (3.9 C)
Relative Humidity: 56%
Pressure (altimeter): 30.12 in. Hg (1019 hPa)
ob: KMCN 232108Z 09007KT 10SM BKN019 OVC110 12/04 A3012 RMK AO2 T01220039
cycle: 21

Station Type Date Time Source
KMCN TAF 2020/01/23 18:39 UTC NOAA

TAF KMCN 231735Z 2318/2418 09010KT P6SM OVC080
TEMPO 2320/2322 6SM -SHRA BR OVC030
FM232200 09009KT P6SM -SHRA OVC030
FM240200 10010KT 6SM -SHRA BR OVC010
FM240500 10010KT 4SM -SHRA BR OVC005
FM241200 12008KT 2SM BR VCSH OVC007
FM241700 24007KT P6SM BKN015

Example: see airport list